Time;durP1;ratioP1;P1;durP2;ratioP2;P2;SDS_P1;SDS_P2;PMS_P1;PMS_P2;Temp;Humidity;BMP_temperature;BMP_pressure;BME280_temperature;BME280_humidity;BME280_pressure;Samples;Min_cycle;Max_cycle;Signal;HPM_P1;HPM_P2
2022/12/31 00:00:52;;;;;;;2.55;2.20;;;;;;;11.46;100.00;100042.03;6269937;28;20053;-71
2022/12/31 00:03:53;;;;;;;2.20;2.00;;;;;;;11.50;100.00;100046.16;6269774;28;20048;-71
2022/12/31 00:06:55;;;;;;;2.33;1.67;;;;;;;11.43;100.00;100055.41;6270100;28;20052;-71
2022/12/31 00:09:56;;;;;;;3.45;2.03;;;;;;;11.37;100.00;100061.94;6269757;28;20049;-71
2022/12/31 00:12:59;;;;;;;4.20;2.35;;;;;;;11.53;100.00;100071.41;6269771;28;20070;-71
2022/12/31 00:16:06;;;;;;;2.28;2.08;;;;;;;11.51;100.00;100075.94;6269754;28;20060;-71
2022/12/31 00:19:11;;;;;;;3.00;2.17;;;;;;;11.42;100.00;100062.44;6269708;28;20489;-71
2022/12/31 00:22:13;;;;;;;2.83;2.30;;;;;;;11.54;100.00;100071.31;6269768;28;20493;-71
2022/12/31 00:25:14;;;;;;;3.85;2.17;;;;;;;11.54;100.00;100058.16;6269474;28;20049;-71
2022/12/31 00:28:17;;;;;;;2.63;2.15;;;;;;;11.54;100.00;100063.41;6269898;28;20048;-71
2022/12/31 00:31:21;;;;;;;3.15;2.40;;;;;;;11.63;100.00;100065.41;6269451;28;20049;-71
2022/12/31 00:34:23;;;;;;;2.17;1.85;;;;;;;11.61;100.00;100069.09;6269568;28;20060;-73
2022/12/31 00:37:24;;;;;;;2.35;1.98;;;;;;;11.71;100.00;100069.28;6269543;28;20053;-71
2022/12/31 00:40:25;;;;;;;2.03;1.77;;;;;;;11.68;100.00;100067.72;6269476;28;20520;-71
2022/12/31 00:43:28;;;;;;;2.28;2.05;;;;;;;11.69;100.00;100062.34;6269534;28;20056;-71
2022/12/31 00:46:30;;;;;;;2.22;1.98;;;;;;;11.81;100.00;100068.56;6269301;28;20056;-71
2022/12/31 00:49:31;;;;;;;2.90;1.98;;;;;;;11.75;100.00;100060.25;6270730;28;20190;-72
2022/12/31 00:52:33;;;;;;;1.75;1.50;;;;;;;11.64;100.00;100059.19;6273873;28;20045;-71
2022/12/31 00:55:34;;;;;;;1.83;1.73;;;;;;;11.70;100.00;100065.81;6273820;28;20045;-71
2022/12/31 00:58:37;;;;;;;3.92;2.40;;;;;;;11.64;100.00;100066.25;6273751;28;20052;-71
2022/12/31 01:01:39;;;;;;;2.55;2.20;;;;;;;11.90;100.00;100081.13;6273694;28;20045;-71
2022/12/31 01:04:41;;;;;;;2.53;2.10;;;;;;;11.84;100.00;100072.81;6273413;28;20052;-71
2022/12/31 01:07:42;;;;;;;2.33;1.80;;;;;;;11.73;100.00;100081.41;6273455;28;20463;-71
2022/12/31 01:14:10;;;;;;;2.22;1.98;;;;;;;11.61;100.00;100084.88;6273347;28;20053;-72
2022/12/31 01:17:12;;;;;;;2.85;1.90;;;;;;;11.53;100.00;100089.81;6273184;28;20440;-71
2022/12/31 01:20:13;;;;;;;2.88;2.50;;;;;;;11.41;100.00;100088.88;6273416;28;20110;-71
2022/12/31 01:23:14;;;;;;;3.10;2.67;;;;;;;11.36;100.00;100090.97;6273011;28;20420;-71
2022/12/31 01:26:17;;;;;;;3.60;2.33;;;;;;;11.26;100.00;100089.88;6273092;28;20045;-71
2022/12/31 01:29:20;;;;;;;3.80;2.30;;;;;;;11.31;100.00;100088.66;6273244;28;20056;-72
2022/12/31 01:32:21;;;;;;;2.15;1.80;;;;;;;11.41;100.00;100091.50;6272793;28;20412;-72
2022/12/31 01:35:23;;;;;;;3.00;1.73;;;;;;;11.34;100.00;100084.97;6273246;28;20052;-72
2022/12/31 01:38:24;;;;;;;12.05;2.00;;;;;;;11.39;100.00;100088.97;6272734;28;20519;-72
2022/12/31 01:41:27;;;;;;;2.85;1.80;;;;;;;11.32;100.00;100094.75;6272468;28;20056;-72
2022/12/31 01:44:52;;;;;;;2.22;1.70;;;;;;;11.26;100.00;100095.13;6272676;28;20496;-72
2022/12/31 01:47:58;;;;;;;1.85;1.70;;;;;;;11.19;100.00;100097.34;6272667;28;20045;-74
2022/12/31 01:50:59;;;;;;;2.35;2.15;;;;;;;11.17;100.00;100096.59;6272470;28;20045;-74
2022/12/31 01:54:04;;;;;;;3.22;2.15;;;;;;;11.15;100.00;100086.19;6272317;28;20053;-71
2022/12/31 01:57:08;;;;;;;3.17;2.30;;;;;;;11.09;100.00;100089.22;6272353;28;20056;-74
2022/12/31 02:00:11;;;;;;;3.83;2.70;;;;;;;11.04;100.00;100091.31;6272300;28;20385;-74
2022/12/31 02:03:14;;;;;;;5.40;3.08;;;;;;;11.09;100.00;100080.50;6272105;28;20056;-74
2022/12/31 02:06:20;;;;;;;5.28;2.80;;;;;;;11.10;100.00;100077.75;6272228;28;20041;-74
2022/12/31 02:09:21;;;;;;;4.47;3.35;;;;;;;11.04;100.00;100083.44;6272148;28;20064;-74
2022/12/31 02:12:23;;;;;;;3.60;2.92;;;;;;;11.05;100.00;100079.84;6271974;28;20057;-74
2022/12/31 02:15:37;;;;;;;3.97;2.50;;;;;;;11.08;100.00;100077.03;6271892;28;20048;-74
2022/12/31 02:18:46;;;;;;;5.70;2.95;;;;;;;11.12;100.00;100086.38;6272048;28;20053;-74
2022/12/31 02:21:56;;;;;;;3.70;2.42;;;;;;;11.09;100.00;100068.19;6271741;28;20393;-73
2022/12/31 02:25:13;;;;;;;4.47;2.97;;;;;;;11.09;100.00;100067.34;6271688;28;20139;-74
2022/12/31 02:28:26;;;;;;;2.80;2.25;;;;;;;11.09;100.00;100059.47;6271606;28;20049;-73
2022/12/31 02:31:34;;;;;;;3.30;2.75;;;;;;;11.08;100.00;100063.00;6271702;28;20060;-74
2022/12/31 02:34:41;;;;;;;2.35;1.83;;;;;;;11.10;100.00;100059.34;6271315;28;20053;-72
2022/12/31 02:37:45;;;;;;;3.60;2.10;;;;;;;11.10;100.00;100061.16;6271621;28;20520;-71
2022/12/31 02:40:47;;;;;;;3.55;2.22;;;;;;;11.09;100.00;100070.81;6271133;28;20060;-72
2022/12/31 02:43:48;;;;;;;2.20;1.80;;;;;;;11.10;100.00;100069.03;6270941;28;20069;-71
2022/12/31 02:47:00;;;;;;;2.05;1.60;;;;;;;11.12;100.00;100059.25;6271178;28;20132;-72
2022/12/31 02:50:23;;;;;;;2.97;1.98;;;;;;;11.14;100.00;100057.38;6271119;28;20048;-72
2022/12/31 02:53:44;;;;;;;3.38;2.08;;;;;;;11.25;100.00;100056.63;6270980;28;20668;-74
2022/12/31 02:56:57;;;;;;;2.15;1.45;;;;;;;11.27;100.00;100052.13;6271141;28;20048;-75
2022/12/31 03:03:24;;;;;;;2.08;1.60;;;;;;;11.28;100.00;100046.75;6269825;28;20084;-75
2022/12/31 03:06:26;;;;;;;1.52;1.33;;;;;;;11.20;100.00;100049.06;6270566;28;20480;-75
2022/12/31 03:09:27;;;;;;;2.47;1.50;;;;;;;11.16;100.00;100050.19;6270994;28;20053;-75
2022/12/31 03:12:46;;;;;;;3.13;1.65;;;;;;;11.16;100.00;100053.69;6270472;28;20064;-75
2022/12/31 03:15:47;;;;;;;2.42;1.83;;;;;;;11.21;100.00;100044.63;6270750;28;20118;-75
2022/12/31 03:25:33;;;;;;;1.25;1.15;;;;;;;11.22;100.00;100017.38;6270702;28;20124;-75
2022/12/31 03:28:34;;;;;;;0.90;0.90;;;;;;;11.33;100.00;100031.50;6270926;28;20467;-75
2022/12/31 03:31:36;;;;;;;1.33;1.13;;;;;;;11.25;100.00;100038.22;6270169;28;20060;-75
2022/12/31 03:34:38;;;;;;;1.48;0.93;;;;;;;11.21;100.00;100029.69;6270318;28;20401;-75
2022/12/31 03:37:40;;;;;;;0.60;0.60;;;;;;;11.17;100.00;100038.72;6270346;28;20052;-75
2022/12/31 03:40:45;;;;;;;0.77;0.70;;;;;;;11.15;100.00;100041.47;6270294;28;20057;-75
2022/12/31 03:43:46;;;;;;;1.02;0.75;;;;;;;11.16;100.00;100048.41;6269982;28;20065;-75
2022/12/31 03:46:48;;;;;;;1.00;0.90;;;;;;;11.22;100.00;100059.47;6270180;28;20045;-75
2022/12/31 03:49:50;;;;;;;0.60;0.60;;;;;;;11.24;100.00;100068.13;6270066;28;20059;-75
2022/12/31 03:52:52;;;;;;;0.60;0.60;;;;;;;11.28;100.00;100080.97;6270439;28;20622;-76
2022/12/31 03:55:54;;;;;;;0.70;0.70;;;;;;;11.40;100.00;100097.72;6269972;28;20048;-76
2022/12/31 03:58:55;;;;;;;1.60;0.95;;;;;;;11.25;100.00;100099.56;6269511;28;20045;-76
2022/12/31 04:01:56;;;;;;;4.50;0.90;;;;;;;11.18;100.00;100091.25;6270148;28;20060;-76
2022/12/31 04:04:59;;;;;;;0.95;0.60;;;;;;;11.08;100.00;100089.31;6269911;28;20048;-75
2022/12/31 04:08:01;;;;;;;0.50;0.50;;;;;;;10.90;100.00;100105.38;6269862;28;20045;-76
2022/12/31 04:11:03;;;;;;;0.77;0.50;;;;;;;10.78;100.00;100106.16;6269689;28;20524;-76
2022/12/31 04:14:04;;;;;;;0.38;0.38;;;;;;;10.71;100.00;100107.47;6269695;28;20456;-77
2022/12/31 04:17:06;;;;;;;0.30;0.30;;;;;;;10.65;100.00;100107.88;6269923;28;20049;-76
2022/12/31 04:20:10;;;;;;;0.57;0.40;;;;;;;10.65;100.00;100100.00;6270172;28;20053;-75
2022/12/31 04:23:11;;;;;;;0.30;0.30;;;;;;;10.52;100.00;100099.94;6269951;28;20060;-75
2022/12/31 04:26:13;;;;;;;0.47;0.30;;;;;;;10.47;100.00;100096.75;6273602;28;20493;-75
2022/12/31 04:29:14;;;;;;;0.20;0.20;;;;;;;10.48;100.00;100100.22;6274803;28;20049;-75
2022/12/31 04:32:15;;;;;;;0.30;0.30;;;;;;;10.43;100.00;100103.13;6274244;28;20045;-75
2022/12/31 04:35:18;;;;;;;0.30;0.30;;;;;;;10.40;100.00;100100.69;6274470;28;20052;-76
2022/12/31 04:38:20;;;;;;;0.13;0.13;;;;;;;10.37;100.00;100098.28;6274460;28;20412;-76
2022/12/31 04:41:22;;;;;;;0.38;0.38;;;;;;;10.35;100.00;100082.59;6273808;28;20484;-75
2022/12/31 04:44:24;;;;;;;1.23;0.30;;;;;;;10.34;100.00;100011.78;6274286;28;20049;-75
2022/12/31 04:47:25;;;;;;;0.50;0.50;;;;;;;10.32;100.00;100042.59;6274246;28;20053;-76
2022/12/31 04:50:28;;;;;;;0.30;0.30;;;;;;;10.27;100.00;100024.50;6275118;28;20049;-77
2022/12/31 04:53:29;;;;;;;0.47;0.40;;;;;;;10.24;100.00;100011.53;6273452;28;20451;-76
2022/12/31 04:56:31;;;;;;;1.38;0.40;;;;;;;10.24;100.00;99997.53;6274530;28;20052;-76
2022/12/31 04:59:33;;;;;;;0.20;0.20;;;;;;;10.18;100.00;100011.91;6274912;28;20052;-76
2022/12/31 05:02:34;;;;;;;0.35;0.32;;;;;;;10.18;100.00;100026.81;6274560;28;20090;-76
2022/12/31 05:05:41;;;;;;;0.22;0.22;;;;;;;10.17;100.00;100044.34;6274491;28;20056;-75
2022/12/31 05:08:43;;;;;;;0.40;0.40;;;;;;;10.13;100.00;100061.25;6274737;28;20568;-75
2022/12/31 05:11:44;;;;;;;0.35;0.30;;;;;;;10.13;100.00;100059.47;6271437;28;20413;-75
2022/12/31 05:14:45;;;;;;;0.38;0.38;;;;;;;10.16;100.00;100061.03;6262590;28;20041;-75
2022/12/31 05:17:47;;;;;;;0.30;0.30;;;;;;;10.14;100.00;100068.19;6266140;28;20064;-76
2022/12/31 05:20:50;;;;;;;0.40;0.40;;;;;;;10.13;100.00;100085.72;6271267;28;20056;-75
2022/12/31 05:23:51;;;;;;;0.20;0.20;;;;;;;10.15;100.00;100090.88;6274534;28;20049;-76
2022/12/31 05:26:53;;;;;;;0.88;0.40;;;;;;;10.16;100.00;100082.03;6274370;28;20139;-75
2022/12/31 05:29:54;;;;;;;0.30;0.30;;;;;;;10.14;100.00;100084.78;6274436;28;20060;-76
2022/12/31 05:32:55;;;;;;;0.50;0.50;;;;;;;10.13;100.00;100082.25;6274242;28;20500;-76
2022/12/31 05:35:58;;;;;;;1.35;0.63;;;;;;;10.12;100.00;100086.63;6273747;28;20070;-76
2022/12/31 05:38:59;;;;;;;0.70;0.57;;;;;;;10.09;100.00;100110.47;6274253;28;20053;-76
2022/12/31 05:42:00;;;;;;;1.20;0.65;;;;;;;10.11;100.00;100128.75;6273734;28;20056;-76
2022/12/31 05:45:02;;;;;;;0.80;0.60;;;;;;;10.13;100.00;100111.97;6266012;28;20512;-76
2022/12/31 05:48:03;;;;;;;0.40;0.40;;;;;;;10.15;100.00;100093.50;6273651;28;20397;-76
2022/12/31 05:51:06;;;;;;;0.40;0.40;;;;;;;10.22;100.00;100107.94;6273959;28;20060;-77
2022/12/31 05:54:07;;;;;;;0.40;0.40;;;;;;;10.23;100.00;100107.00;6273653;28;20053;-76
2022/12/31 05:57:09;;;;;;;0.50;0.50;;;;;;;10.22;100.00;100107.94;6274195;28;20045;-76
2022/12/31 06:00:11;;;;;;;0.75;0.57;;;;;;;10.20;100.00;100090.56;6273405;28;20448;-76
2022/12/31 06:03:13;;;;;;;0.55;0.52;;;;;;;10.18;100.00;100108.22;6273410;28;20049;-76
2022/12/31 06:06:15;;;;;;;2.83;0.52;;;;;;;10.21;100.00;100094.88;6273475;28;20045;-77
2022/12/31 06:09:17;;;;;;;1.02;0.40;;;;;;;10.22;100.00;100089.56;6273428;28;20049;-76
2022/12/31 06:12:19;;;;;;;0.60;0.60;;;;;;;10.23;100.00;100101.75;6273382;28;20060;-77
2022/12/31 06:15:20;;;;;;;0.52;0.52;;;;;;;10.27;100.00;100103.28;6273087;28;20398;-76
2022/12/31 06:18:21;;;;;;;0.55;0.50;;;;;;;10.29;100.00;100117.13;6273476;28;20067;-76
2022/12/31 06:21:24;;;;;;;0.70;0.70;;;;;;;10.32;100.00;100119.59;6272975;28;20056;-76
2022/12/31 06:24:25;;;;;;;1.00;0.82;;;;;;;10.33;100.00;100134.41;6273085;28;20488;-76
2022/12/31 06:27:27;;;;;;;0.52;0.52;;;;;;;10.36;100.00;100138.63;6272977;28;20052;-76
2022/12/31 06:30:28;;;;;;;1.10;1.00;;;;;;;10.38;100.00;100136.72;6272663;28;20056;-76
2022/12/31 06:33:29;;;;;;;0.70;0.70;;;;;;;10.39;100.00;100133.16;6272989;28;20075;-77
2022/12/31 06:36:32;;;;;;;0.50;0.50;;;;;;;10.41;100.00;100128.69;6272493;28;20048;-76
2022/12/31 06:39:34;;;;;;;0.63;0.55;;;;;;;10.45;100.00;100140.69;6272968;28;20412;-76
2022/12/31 06:42:35;;;;;;;0.77;0.45;;;;;;;10.47;100.00;100146.66;6272434;28;20059;-77
2022/12/31 06:45:38;;;;;;;0.50;0.45;;;;;;;10.63;100.00;100152.66;6272646;28;20064;-76
2022/12/31 06:48:41;;;;;;;0.20;0.20;;;;;;;10.60;100.00;100123.09;6271619;28;20405;-76
2022/12/31 06:51:46;;;;;;;0.50;0.50;;;;;;;10.56;100.00;100126.84;6272244;28;20183;-76
2022/12/31 06:54:48;;;;;;;0.30;0.30;;;;;;;10.52;100.00;100131.47;6272271;28;20052;-76
2022/12/31 06:57:50;;;;;;;0.57;0.57;;;;;;;10.61;100.00;100128.25;6272472;28;20060;-76
2022/12/31 07:01:03;;;;;;;3.50;0.47;;;;;;;10.58;100.00;100135.47;6272111;28;20044;-76
2022/12/31 07:04:26;;;;;;;0.30;0.30;;;;;;;10.57;100.00;100129.38;6272219;28;20497;-76
2022/12/31 07:07:34;;;;;;;0.40;0.40;;;;;;;10.53;100.00;100122.63;6272086;28;20049;-76
2022/12/31 07:10:44;;;;;;;0.32;0.32;;;;;;;10.52;100.00;100133.25;6272125;28;20045;-76
2022/12/31 07:13:56;;;;;;;0.28;0.28;;;;;;;10.57;100.00;100150.41;6271676;28;20056;-76
2022/12/31 07:17:08;;;;;;;0.20;0.20;;;;;;;10.55;100.00;100151.44;6271978;28;20495;-76
2022/12/31 07:20:12;;;;;;;0.90;0.20;;;;;;;10.54;100.00;100139.25;6271710;28;20056;-77
2022/12/31 07:23:16;;;;;;;0.30;0.30;;;;;;;10.54;100.00;100136.63;6271667;28;20393;-77
2022/12/31 07:26:31;;;;;;;0.28;0.28;;;;;;;10.57;100.00;100139.88;6271583;28;20053;-77
2022/12/31 07:29:46;;;;;;;0.30;0.30;;;;;;;10.53;100.00;100155.94;6271857;28;20056;-76
2022/12/31 07:33:21;;;;;;;0.68;0.40;;;;;;;10.56;100.00;100168.91;6271712;28;20056;-76
2022/12/31 07:36:31;;;;;;;1.00;0.35;;;;;;;10.55;100.00;100159.34;6271672;28;20041;-77
2022/12/31 07:39:42;;;;;;;0.85;0.40;;;;;;;10.54;100.00;100161.13;6271907;28;20053;-77
2022/12/31 07:43:01;;;;;;;0.93;0.50;;;;;;;10.56;100.00;100164.47;6271430;28;20056;-76
2022/12/31 07:46:07;;;;;;;;;;;;;;;10.58;100.00;100156.50;6271782;28;20397;-76
2022/12/31 07:49:10;;;;;;;0.40;0.40;;;;;;;10.59;100.00;100173.97;6271579;28;19920;-76
2022/12/31 07:52:12;;;;;;;0.40;0.40;;;;;;;10.63;100.00;100186.81;6271356;28;20049;-77
2022/12/31 07:55:15;;;;;;;1.02;0.57;;;;;;;10.59;100.00;100164.31;6271347;28;20707;-77
2022/12/31 07:58:22;;;;;;;0.52;0.30;;;;;;;10.63;100.00;100160.53;6272561;28;20049;-76
2022/12/31 08:01:32;;;;;;;0.40;0.40;;;;;;;10.65;100.00;100176.19;6276277;28;20075;-77
2022/12/31 08:04:43;;;;;;;0.30;0.30;;;;;;;10.69;100.00;100153.22;6276528;28;20523;-77
2022/12/31 08:07:52;;;;;;;0.40;0.30;;;;;;;10.68;100.00;100148.91;6276213;28;20128;-77
2022/12/31 08:11:06;;;;;;;0.55;0.50;;;;;;;10.70;100.00;100183.78;6276267;28;20056;-76
2022/12/31 08:14:11;;;;;;;0.30;0.30;;;;;;;10.76;100.00;100165.00;6276015;28;20128;-76
2022/12/31 08:17:14;;;;;;;0.40;0.35;;;;;;;10.71;100.00;100170.56;6276261;28;20511;-76
2022/12/31 08:20:17;;;;;;;0.20;0.20;;;;;;;10.74;100.00;100182.66;6275977;28;20045;-76
2022/12/31 08:23:25;;;;;;;0.40;0.40;;;;;;;10.73;100.00;100178.34;6276033;28;20049;-77
2022/12/31 08:26:36;;;;;;;0.90;0.30;;;;;;;10.76;100.00;100167.63;6275781;28;20048;-77
2022/12/31 08:29:46;;;;;;;0.43;0.40;;;;;;;10.76;100.00;100165.00;6275801;28;20412;-77
2022/12/31 08:32:57;;;;;;;0.40;0.28;;;;;;;10.77;100.00;100174.59;6275745;28;20528;-76
2022/12/31 08:36:14;;;;;;;0.25;0.25;;;;;;;10.79;100.00;100152.50;6275843;28;20068;-76
2022/12/31 08:39:30;;;;;;;0.30;0.30;;;;;;;10.82;100.00;100148.88;6275067;28;20341;-76
2022/12/31 08:42:42;;;;;;;0.40;0.40;;;;;;;10.88;100.00;100153.72;6261615;28;20045;-76
2022/12/31 08:45:48;;;;;;;0.20;0.20;;;;;;;10.85;100.00;100162.63;6250463;28;20056;-76
2022/12/31 08:48:49;;;;;;;0.30;0.30;;;;;;;10.91;100.00;100156.16;6250374;28;20045;-76
2022/12/31 08:51:51;;;;;;;0.30;0.30;;;;;;;10.97;100.00;100157.53;6250135;28;20057;-76
2022/12/31 08:54:53;;;;;;;0.30;0.30;;;;;;;10.92;100.00;100157.84;6255455;28;20408;-76
2022/12/31 08:58:09;;;;;;;0.40;0.40;;;;;;;10.93;100.00;100151.63;6261916;28;20052;-76
2022/12/31 09:01:17;;;;;;;0.25;0.25;;;;;;;10.89;100.00;100161.50;6262135;28;20424;-77
2022/12/31 09:04:29;;;;;;;0.30;0.30;;;;;;;10.95;100.00;100165.53;6262971;28;20056;-76
2022/12/31 09:07:36;;;;;;;0.30;0.30;;;;;;;11.03;100.00;100144.00;6274805;28;20048;-76
2022/12/31 09:10:42;;;;;;;0.40;0.40;;;;;;;10.98;100.00;100162.69;6273849;28;20049;-76
2022/12/31 09:14:08;;;;;;;0.38;0.38;;;;;;;11.11;100.00;100158.34;6274575;28;20052;-77
2022/12/31 09:17:31;;;;;;;0.30;0.30;;;;;;;11.14;100.00;100157.31;6270742;28;20053;-77
2022/12/31 09:20:34;;;;;;;0.28;0.28;;;;;;;11.18;100.00;100164.88;6274458;28;20516;-76
2022/12/31 09:23:36;;;;;;;0.40;0.40;;;;;;;11.22;100.00;100157.66;6274586;28;20044;-76
2022/12/31 09:26:49;;;;;;;1.52;0.50;;;;;;;11.25;100.00;100144.28;6274378;28;20060;-77
2022/12/31 09:29:59;;;;;;;0.70;0.70;;;;;;;11.64;100.00;100172.38;6274482;28;20060;-76
2022/12/31 09:33:07;;;;;;;0.63;0.57;;;;;;;11.71;100.00;100204.38;6274452;28;20053;-77
2022/12/31 09:36:14;;;;;;;0.75;0.68;;;;;;;11.69;100.00;100212.38;6274399;28;20512;-75
2022/12/31 09:39:25;;;;;;;0.77;0.75;;;;;;;11.82;100.00;100224.75;6274223;28;20049;-74
2022/12/31 09:42:59;;;;;;;0.60;0.60;;;;;;;11.89;100.00;100215.50;6272098;28;20057;-73
2022/12/31 09:46:42;;;;;;;0.50;0.50;;;;;;;11.86;100.00;100221.00;6274272;28;20424;-76
2022/12/31 09:50:09;;;;;;;0.65;0.65;;;;;;;11.86;100.00;100221.00;6173116;28;20053;-76
2022/12/31 09:53:29;;;;;;;1.60;0.80;;;;;;;11.83;100.00;100224.66;6274026;28;20052;-77
2022/12/31 09:56:36;;;;;;;1.10;1.00;;;;;;;11.86;100.00;100253.44;6262380;28;20053;-76
2022/12/31 09:59:43;;;;;;;2.03;1.02;;;;;;;11.90;100.00;100246.19;6273768;28;20052;-77
2022/12/31 10:03:15;;;;;;;1.42;0.38;;;;;;;12.08;100.00;100249.34;6273605;28;20052;-77
2022/12/31 10:06:24;;;;;;;0.90;0.45;;;;;;;12.10;100.00;100218.47;6273490;28;20064;-77
2022/12/31 10:09:46;;;;;;;4.47;0.60;;;;;;;12.10;100.00;100210.56;6274178;28;20044;-77
2022/12/31 10:13:34;;;;;;;0.38;0.38;;;;;;;12.13;100.00;100202.47;6273331;28;20056;-77
2022/12/31 10:16:52;;;;;;;0.63;0.60;;;;;;;12.15;100.00;100182.13;6273351;28;20056;-74
2022/12/31 10:20:26;;;;;;;3.15;0.50;;;;;;;12.07;100.00;100187.91;6273516;28;20049;-77
2022/12/31 10:23:51;;;;;;;0.40;0.30;;;;;;;12.09;100.00;100177.28;6257953;28;20053;-78
2022/12/31 10:27:04;;;;;;;0.93;0.70;;;;;;;12.04;100.00;100176.78;6273343;28;20098;-77
2022/12/31 10:30:15;;;;;;;1.13;0.77;;;;;;;12.03;100.00;100177.69;6273168;28;20049;-78
2022/12/31 10:33:21;;;;;;;0.88;0.65;;;;;;;12.07;100.00;100179.16;6272866;28;20049;-77
2022/12/31 10:36:31;;;;;;;1.75;0.65;;;;;;;12.13;100.00;100220.91;6272813;28;20523;-77
2022/12/31 10:39:45;;;;;;;0.43;0.43;;;;;;;12.09;100.00;100249.25;6267775;28;20045;-78
2022/12/31 10:43:30;;;;;;;0.93;0.70;;;;;;;12.21;100.00;100220.38;6257497;28;20051;-77
2022/12/31 10:46:54;;;;;;;0.47;0.40;;;;;;;12.25;100.00;100235.84;6252382;28;20049;-77
2022/12/31 10:50:23;;;;;;;0.20;0.20;;;;;;;12.23;100.00;100234.28;6251689;28;20060;-77
2022/12/31 10:53:51;;;;;;;0.75;0.45;;;;;;;12.20;100.00;100251.16;6262589;28;20060;-77
2022/12/31 10:57:27;;;;;;;0.95;0.70;;;;;;;12.25;100.00;100264.00;6269544;28;20064;-77
2022/12/31 11:00:34;;;;;;;0.40;0.40;;;;;;;12.27;100.00;100249.78;6246812;28;20049;-77
2022/12/31 11:04:19;;;;;;;0.30;0.30;;;;;;;12.36;100.00;100270.25;6247623;28;20045;-77
2022/12/31 11:07:50;;;;;;;0.85;0.35;;;;;;;12.48;100.00;100271.16;6247237;28;20053;-76
2022/12/31 11:11:06;;;;;;;0.85;0.40;;;;;;;12.61;100.00;100297.53;6247215;28;20061;-76
2022/12/31 11:14:37;;;;;;;0.30;0.30;;;;;;;12.61;100.00;100297.53;6246915;28;20416;-77
2022/12/31 11:17:53;;;;;;;0.75;0.40;;;;;;;12.72;100.00;100295.00;6260462;28;20064;-77
2022/12/31 11:21:09;;;;;;;0.40;0.40;;;;;;;12.77;100.00;100281.50;6265800;28;20052;-77
2022/12/31 11:24:25;;;;;;;4.30;0.50;;;;;;;12.81;100.00;100293.50;6271645;28;20416;-77
2022/12/31 11:27:42;;;;;;;0.40;0.40;;;;;;;12.88;100.00;100273.69;6271815;28;20049;-76
2022/12/31 11:30:56;;;;;;;0.73;0.30;;;;;;;12.92;100.00;100276.00;6271366;28;20044;-76
2022/12/31 11:34:11;;;;;;;0.40;0.30;;;;;;;12.96;100.00;100266.06;6246534;28;20045;-76
2022/12/31 11:37:32;;;;;;;0.73;0.30;;;;;;;12.89;100.00;100264.81;6246849;28;20056;-77
2022/12/31 11:40:43;;;;;;;1.35;0.25;;;;;;;12.94;100.00;100266.19;6246972;28;20505;-77
2022/12/31 11:43:54;;;;;;;0.52;0.43;;;;;;;13.02;100.00;100262.16;6246468;28;20060;-77
2022/12/31 11:47:14;;;;;;;0.30;0.30;;;;;;;13.10;100.00;100254.53;6246765;28;20058;-77
2022/12/31 11:50:32;;;;;;;1.13;0.77;;;;;;;13.07;100.00;100255.59;6245382;28;20050;-77
2022/12/31 11:53:44;;;;;;;3.67;0.50;;;;;;;13.17;100.00;100261.91;6246518;28;20052;-78
2022/12/31 11:56:52;;;;;;;1.25;0.90;;;;;;;13.14;100.00;100264.75;6245931;28;20049;-77
2022/12/31 11:59:57;;;;;;;0.90;0.70;;;;;;;13.17;100.00;100261.03;6246020;28;20594;-78
2022/12/31 12:03:03;;;;;;;0.77;0.60;;;;;;;13.18;100.00;100260.94;6246570;28;20059;-77
2022/12/31 12:06:06;;;;;;;1.00;0.57;;;;;;;13.19;100.00;100264.44;6246442;28;20509;-76
2022/12/31 12:09:14;;;;;;;3.35;0.98;;;;;;;13.15;100.00;100268.22;6246466;28;20132;-77
2022/12/31 12:12:16;;;;;;;1.85;0.88;;;;;;;13.17;100.00;100261.03;6246309;28;20056;-76
2022/12/31 12:15:22;;;;;;;1.52;0.63;;;;;;;13.20;100.00;100259.03;6246421;28;20520;-77
2022/12/31 12:18:30;;;;;;;0.47;0.40;;;;;;;13.17;100.00;100251.34;6246405;28;20045;-76
2022/12/31 12:21:31;;;;;;;1.10;0.70;;;;;;;13.20;100.00;100245.00;6246343;28;20050;-77
2022/12/31 12:24:33;;;;;;;0.60;0.60;;;;;;;13.20;100.00;100251.13;6246120;28;20052;-77
2022/12/31 12:27:35;;;;;;;2.05;0.77;;;;;;;13.21;100.00;100242.22;6246314;28;20532;-77
2022/12/31 12:30:40;;;;;;;3.10;0.75;;;;;;;13.23;100.00;100233.41;6246192;28;20512;-78
2022/12/31 12:33:45;;;;;;;1.05;0.40;;;;;;;13.30;100.00;100238.13;6246142;28;20057;-77
2022/12/31 12:36:47;;;;;;;0.65;0.60;;;;;;;13.32;100.00;100238.03;6246502;28;20049;-77
2022/12/31 12:39:55;;;;;;;1.92;0.82;;;;;;;13.29;100.00;100236.44;6246440;28;20045;-76
2022/12/31 12:42:57;;;;;;;0.68;0.68;;;;;;;13.33;100.00;100240.56;6247982;28;20056;-76
2022/12/31 12:46:01;;;;;;;1.38;0.80;;;;;;;13.42;100.00;100224.03;6259214;28;20045;-74
2022/12/31 12:49:03;;;;;;;2.75;0.75;;;;;;;13.51;100.00;100226.97;6259964;28;20053;-75
2022/12/31 12:52:27;;;;;;;1.23;1.10;;;;;;;13.50;100.00;100220.84;6267290;28;20203;-74
2022/12/31 12:55:38;;;;;;;2.53;0.95;;;;;;;13.43;100.00;100209.88;6267571;28;20068;-76
2022/12/31 12:58:51;;;;;;;1.45;0.77;;;;;;;13.54;100.00;100224.09;6266050;28;20041;-77
2022/12/31 13:02:00;;;;;;;1.30;0.75;;;;;;;13.59;100.00;100222.81;6266090;28;20042;-75
2022/12/31 13:05:20;;;;;;;0.77;0.73;;;;;;;13.66;100.00;100220.53;6256349;28;20045;-76
2022/12/31 13:08:33;;;;;;;3.70;0.93;;;;;;;13.80;100.00;100222.97;6256610;28;20045;-76
2022/12/31 13:11:44;;;;;;;1.42;1.15;;;;;;;13.80;100.00;100227.41;6265222;28;20425;-76
2022/12/31 13:14:53;;;;;;;2.97;1.00;;;;;;;13.82;100.00;100233.44;6254953;28;20053;-76
2022/12/31 13:18:04;;;;;;;4.30;1.65;;;;;;;13.95;100.00;100236.84;6266053;28;20492;-75
2022/12/31 13:21:22;;;;;;;2.53;1.02;;;;;;;14.08;100.00;100232.31;6274148;28;20138;-74
2022/12/31 13:24:35;;;;;;;1.60;0.80;;;;;;;14.03;100.00;100228.31;6268087;28;20053;-74
2022/12/31 13:27:40;;;;;;;2.35;0.98;;;;;;;14.27;100.00;100226.47;6274199;28;20060;-73
2022/12/31 13:30:45;;;;;;;4.80;1.00;;;;;;;14.28;100.00;100206.16;6266173;28;20061;-73
2022/12/31 13:33:52;;;;;;;3.85;0.80;;;;;;;14.33;100.00;100217.22;6273771;28;20049;-71
2022/12/31 13:36:58;;;;;;;5.28;1.23;;;;;;;14.59;100.00;100225.78;6273974;28;20432;-71
2022/12/31 13:40:06;;;;;;;0.90;0.68;;;;;;;14.54;100.00;100220.88;6274074;28;20525;-73
2022/12/31 13:43:16;;;;;;;2.97;1.00;;;;;;;14.67;100.00;100216.31;6273759;28;20431;-73
2022/12/31 13:46:24;;;;;;;4.13;1.20;;;;;;;14.70;100.00;100217.84;6273730;28;20053;-74
2022/12/31 13:49:31;;;;;;;1.58;1.02;;;;;;;14.80;100.00;100212.66;6274067;28;20044;-73
2022/12/31 13:52:38;;;;;;;1.27;0.93;;;;;;;14.85;100.00;100218.44;6273556;28;20556;-73
2022/12/31 13:55:44;;;;;;;2.78;0.85;;;;;;;14.89;100.00;100214.56;6273622;28;20056;-73
2022/12/31 13:58:51;;;;;;;0.55;0.55;;;;;;;14.93;100.00;100230.09;6260836;28;20147;-77
2022/12/31 14:01:58;;;;;;;3.60;1.30;;;;;;;14.92;100.00;100225.75;6273239;28;20041;-76
2022/12/31 14:05:06;;;;;;;3.83;0.68;;;;;;;14.98;100.00;100221.78;6273722;28;20075;-78
2022/12/31 14:08:09;;;;;;;1.13;0.80;;;;;;;14.99;100.00;100236.72;6273339;28;20049;-76
2022/12/31 14:11:20;;;;;;;3.53;0.85;;;;;;;14.97;100.00;100230.69;6273194;28;20578;-77
2022/12/31 14:14:30;;;;;;;4.97;0.80;;;;;;;15.08;100.00;100248.34;6273210;28;20496;-77
2022/12/31 14:17:42;;;;;;;1.42;0.75;;;;;;;15.02;100.00;100231.16;6273230;28;20053;-77
2022/12/31 14:20:47;;;;;;;2.72;0.80;;;;;;;14.89;100.00;100238.38;6258746;28;20049;-77
2022/12/31 14:24:00;;;;;;;0.75;0.47;;;;;;;15.06;100.00;100242.34;6265615;28;20045;-77
2022/12/31 14:27:06;;;;;;;2.28;0.57;;;;;;;14.98;100.00;100254.38;6268019;28;20049;-77
2022/12/31 14:30:15;;;;;;;1.88;0.77;;;;;;;14.98;100.00;100254.38;6270628;28;20048;-77
2022/12/31 14:33:31;;;;;;;1.77;0.93;;;;;;;15.09;100.00;100261.47;6272866;28;20053;-77
2022/12/31 14:36:43;;;;;;;4.88;0.65;;;;;;;15.08;100.00;100273.03;6272576;28;20527;-76